createdAt,value
2022-12-18T00:00:25.732Z,97591.94
2022-12-18T00:02:58.275Z,97585.41
2022-12-18T00:05:26.705Z,97592.88
2022-12-18T00:07:56.229Z,97538.91
2022-12-18T00:10:25.204Z,97587.44
2022-12-18T00:12:53.597Z,97576.47
2022-12-18T00:15:23.142Z,97579.25
2022-12-18T00:17:51.620Z,97573.97
2022-12-18T00:20:26.949Z,97577.66
2022-12-18T00:22:56.060Z,97572.22
2022-12-18T00:25:25.570Z,97590.47
2022-12-18T00:27:54.030Z,97585.88
2022-12-18T00:30:23.003Z,97599.81
2022-12-18T00:32:51.855Z,97604.50
2022-12-18T00:35:21.719Z,97612.09
2022-12-18T00:37:50.963Z,97615.94
2022-12-18T00:40:19.361Z,97624.34
2022-12-18T00:42:57.012Z,97618.78
2022-12-18T00:45:26.230Z,97619.59
2022-12-18T00:47:56.408Z,97624.38
2022-12-18T00:50:27.300Z,97619.47
2022-12-18T00:52:56.054Z,97619.56
2022-12-18T00:55:24.924Z,97619.34
2022-12-18T00:57:53.781Z,97617.97
2022-12-18T01:00:23.530Z,97619.38
2022-12-18T01:02:52.385Z,97613.47
2022-12-18T01:05:21.017Z,97612.59
2022-12-18T01:07:51.610Z,97575.56
2022-12-18T01:10:21.080Z,97613.56
2022-12-18T01:12:50.477Z,97612.84
2022-12-18T01:15:20.959Z,97616.91
2022-12-18T01:17:49.374Z,97617.31
2022-12-18T01:20:17.790Z,97608.50
2022-12-18T01:22:48.360Z,97611.75
2022-12-18T01:25:18.234Z,97614.13
2022-12-18T01:27:47.036Z,97615.50
2022-12-18T01:30:15.925Z,97631.00
2022-12-18T01:32:44.321Z,97637.63
2022-12-18T01:35:13.618Z,97639.16
2022-12-18T01:37:42.000Z,97649.19
2022-12-18T01:40:12.235Z,97621.06
2022-12-18T01:42:42.736Z,97654.41
2022-12-18T01:45:28.526Z,97656.66
2022-12-18T01:47:59.759Z,97649.19
2022-12-18T01:50:33.688Z,97659.78
2022-12-18T01:53:08.135Z,97648.34
2022-12-18T01:55:43.617Z,97649.06
2022-12-18T01:58:13.415Z,97655.56
2022-12-18T02:00:42.835Z,97659.66
2022-12-18T02:03:12.197Z,97621.47
2022-12-18T02:05:49.392Z,97654.44
2022-12-18T02:08:24.298Z,97652.81
2022-12-18T02:11:02.403Z,97656.44
2022-12-18T02:13:43.144Z,97634.53
2022-12-18T02:16:21.547Z,97655.56
2022-12-18T02:18:55.068Z,97649.66
2022-12-18T02:21:33.365Z,97663.91
2022-12-18T02:24:26.853Z,97669.34
2022-12-18T02:27:00.388Z,97656.09
2022-12-18T02:29:37.305Z,97671.84
2022-12-18T02:32:11.746Z,97667.72
2022-12-18T02:34:41.859Z,97670.19
2022-12-18T02:37:20.076Z,97654.28
2022-12-18T02:39:52.099Z,97666.22
2022-12-18T02:42:22.206Z,97629.41
2022-12-18T02:44:53.839Z,97659.31
2022-12-18T02:47:31.904Z,97673.69
2022-12-18T02:50:09.005Z,97683.94
2022-12-18T02:52:43.836Z,97674.28
2022-12-18T02:55:30.613Z,97685.09
2022-12-18T02:58:13.055Z,97682.19
2022-12-18T03:00:49.993Z,97675.34
2022-12-18T03:03:26.450Z,97677.53
2022-12-18T03:06:01.025Z,97661.88
2022-12-18T03:08:32.478Z,97672.00
2022-12-18T03:11:04.803Z,97672.63
2022-12-18T03:13:40.578Z,97650.81
2022-12-18T03:16:12.889Z,97657.06
2022-12-18T03:18:48.542Z,97666.41
2022-12-18T03:21:22.847Z,97654.84
2022-12-18T03:23:55.207Z,97627.94
2022-12-18T03:26:29.809Z,97656.47
2022-12-18T03:29:08.704Z,97645.63
2022-12-18T03:31:42.202Z,97649.00
2022-12-18T03:34:14.266Z,97637.13
2022-12-18T03:36:46.594Z,97628.13
2022-12-18T03:39:16.485Z,97644.03
2022-12-18T03:41:57.916Z,97616.00
2022-12-18T03:44:41.975Z,97646.41
2022-12-18T03:47:16.690Z,97656.78
2022-12-18T03:49:53.057Z,97650.03
2022-12-18T03:52:28.694Z,97630.22
2022-12-18T03:55:00.957Z,97633.78
2022-12-18T03:57:32.323Z,97638.16
2022-12-18T04:00:07.562Z,97659.03
2022-12-18T04:03:07.980Z,97659.84
2022-12-18T04:05:46.060Z,97651.44
2022-12-18T04:08:16.964Z,97657.00
2022-12-18T04:10:53.194Z,97656.22
2022-12-18T04:13:25.676Z,97660.47
2022-12-18T04:15:56.526Z,97650.59
2022-12-18T04:18:26.009Z,97646.00
2022-12-18T04:20:56.369Z,97659.09
2022-12-18T04:23:25.365Z,97660.56
2022-12-18T04:25:56.024Z,97664.72
2022-12-18T04:28:38.830Z,97659.44
2022-12-18T04:31:08.730Z,97652.59
2022-12-18T04:33:37.901Z,97659.69
2022-12-18T04:36:08.958Z,97669.28
2022-12-18T04:38:37.714Z,97661.13
2022-12-18T04:41:10.844Z,97689.78
2022-12-18T04:43:39.840Z,97683.38
2022-12-18T04:46:11.801Z,97667.63
2022-12-18T04:48:40.572Z,97676.41
2022-12-18T04:51:10.017Z,97693.63
2022-12-18T04:53:38.822Z,97681.22
2022-12-18T04:56:10.150Z,97678.47
2022-12-18T04:58:39.099Z,97689.78
2022-12-18T05:01:10.760Z,97697.25
2022-12-18T05:03:40.051Z,97700.16
2022-12-18T05:06:09.123Z,97698.00
2022-12-18T05:08:37.793Z,97691.31
2022-12-18T05:11:09.140Z,97712.66
2022-12-18T05:13:39.267Z,97714.22
2022-12-18T05:16:11.154Z,97719.84
2022-12-18T05:18:39.728Z,97702.06
2022-12-18T05:21:08.543Z,97719.84
2022-12-18T05:23:37.641Z,97725.91
2022-12-18T05:26:09.049Z,97722.53
2022-12-18T05:28:38.818Z,97719.28
2022-12-18T05:31:07.864Z,97712.31
2022-12-18T05:33:38.488Z,97712.75
2022-12-18T05:36:09.440Z,97718.44
2022-12-18T05:38:40.231Z,97712.44
2022-12-18T05:41:09.640Z,97714.13
2022-12-18T05:43:39.803Z,97688.94
2022-12-18T05:46:11.117Z,97687.97
2022-12-18T05:48:40.894Z,97710.22
2022-12-18T05:51:12.097Z,97713.72
2022-12-18T05:53:41.259Z,97717.41
2022-12-18T05:56:13.357Z,97712.59
2022-12-18T05:58:41.718Z,97720.38
2022-12-18T06:01:13.376Z,97730.22
2022-12-18T06:03:43.513Z,97715.75
2022-12-18T06:06:16.925Z,97705.94
2022-12-18T06:08:46.840Z,97711.84
2022-12-18T06:11:19.223Z,97742.66
2022-12-18T06:13:48.419Z,97740.00
2022-12-18T06:16:17.096Z,97738.22
2022-12-18T06:18:47.287Z,97733.75
2022-12-18T06:21:15.915Z,97723.03
2022-12-18T06:23:44.604Z,97741.31
2022-12-18T06:26:15.340Z,97743.97
2022-12-18T06:28:44.213Z,97752.03
2022-12-18T06:31:13.731Z,97758.50
2022-12-18T06:33:42.606Z,97744.91
2022-12-18T06:36:15.009Z,97745.47
2022-12-18T06:38:44.829Z,97747.28
2022-12-18T06:41:15.769Z,97750.19
2022-12-18T06:43:44.717Z,97752.38
2022-12-18T06:46:13.791Z,97732.03
2022-12-18T06:48:42.950Z,97749.72
2022-12-18T06:51:12.738Z,97763.72
2022-12-18T06:53:41.697Z,97758.91
2022-12-18T06:56:11.069Z,97762.53
2022-12-18T06:58:40.227Z,97772.78
2022-12-18T07:01:10.946Z,97763.09
2022-12-18T07:03:41.381Z,97772.59
2022-12-18T07:06:17.997Z,97779.00
2022-12-18T07:08:46.815Z,97759.47
2022-12-18T07:11:15.791Z,97773.81
2022-12-18T07:13:44.536Z,97777.66
2022-12-18T07:16:19.674Z,97785.59
2022-12-18T07:18:53.172Z,97786.34
2022-12-18T07:21:23.848Z,97762.25
2022-12-18T07:23:52.834Z,97793.69
2022-12-18T07:26:23.740Z,97661.19
2022-12-18T07:28:52.530Z,97782.25
2022-12-18T07:31:23.467Z,97785.75
2022-12-18T07:33:53.421Z,97787.06
2022-12-18T07:36:23.455Z,97788.88
2022-12-18T07:38:52.886Z,97779.59
2022-12-18T07:41:22.452Z,97774.53
2022-12-18T07:43:51.016Z,97795.75
2022-12-18T07:46:20.103Z,97796.25
2022-12-18T07:48:49.834Z,97802.03
2022-12-18T07:51:19.872Z,97807.91
2022-12-18T07:53:52.130Z,97795.13
2022-12-18T07:56:30.512Z,97787.19
2022-12-18T07:59:00.930Z,97780.34
2022-12-18T08:01:29.485Z,97796.81
2022-12-18T08:03:59.039Z,97797.56
2022-12-18T08:06:27.976Z,97796.22
2022-12-18T08:08:58.653Z,97795.97
2022-12-18T08:11:29.648Z,97791.38
2022-12-18T08:13:58.770Z,97771.28
2022-12-18T08:16:27.884Z,97785.94
2022-12-18T08:18:57.586Z,97797.16
2022-12-18T08:21:28.309Z,97795.34
2022-12-18T08:24:00.454Z,97802.22
2022-12-18T08:26:31.434Z,97799.97
2022-12-18T08:29:01.369Z,97796.94
2022-12-18T08:31:32.752Z,97810.91
2022-12-18T08:34:01.215Z,97806.81
2022-12-18T08:36:30.355Z,97820.31
2022-12-18T08:39:00.417Z,97815.13
2022-12-18T08:41:28.913Z,97822.22
2022-12-18T08:44:15.218Z,97816.66
2022-12-18T08:46:45.427Z,97818.22
2022-12-18T08:49:14.413Z,97817.09
2022-12-18T08:51:42.851Z,97823.00
2022-12-18T08:54:14.246Z,97843.75
2022-12-18T08:56:42.671Z,97848.94
2022-12-18T08:59:17.584Z,97860.22
2022-12-18T09:01:49.024Z,97866.03
2022-12-18T09:04:17.692Z,97863.88
2022-12-18T09:06:47.848Z,97857.38
2022-12-18T09:09:17.670Z,97860.63
2022-12-18T09:11:46.099Z,97834.38
2022-12-18T09:14:14.783Z,97857.63
2022-12-18T09:16:43.477Z,97827.63
2022-12-18T09:19:12.879Z,97837.97
2022-12-18T09:21:46.107Z,97835.31
2022-12-18T09:24:18.861Z,97835.41
2022-12-18T09:26:47.792Z,97833.84
2022-12-18T09:29:18.394Z,97829.88
2022-12-18T09:31:47.637Z,97832.88
2022-12-18T09:34:16.520Z,97830.69
2022-12-18T09:36:45.566Z,97829.84
2022-12-18T09:39:15.954Z,97830.81
2022-12-18T09:41:50.922Z,97820.84
2022-12-18T09:44:26.107Z,97828.28
2022-12-18T09:47:27.358Z,97824.06
2022-12-18T09:50:00.464Z,97818.91
2022-12-18T09:52:35.172Z,97830.91
2022-12-18T09:55:12.645Z,97815.94
2022-12-18T09:57:51.486Z,97813.88
2022-12-18T10:00:23.742Z,97810.91
2022-12-18T10:02:55.039Z,97810.16
2022-12-18T10:05:37.020Z,97802.03
2022-12-18T10:08:09.389Z,97807.19
2022-12-18T10:10:43.100Z,97803.38
2022-12-18T10:13:20.715Z,97798.16
2022-12-18T10:16:02.419Z,97786.31
2022-12-18T10:18:51.778Z,97795.19
2022-12-18T10:21:26.643Z,97793.78
2022-12-18T10:24:05.441Z,97793.06
2022-12-18T10:26:34.821Z,97770.06
2022-12-18T10:29:10.384Z,97775.84
2022-12-18T10:31:38.853Z,97777.13
2022-12-18T10:34:11.654Z,97757.75
2022-12-18T10:36:40.567Z,97780.75
2022-12-18T10:39:17.593Z,97770.53
2022-12-18T10:41:46.150Z,97777.84
2022-12-18T10:44:19.833Z,97775.06
2022-12-18T10:46:50.586Z,97783.88
2022-12-18T10:49:26.377Z,97786.16
2022-12-18T10:52:07.814Z,97759.50
2022-12-18T10:54:37.480Z,97771.94
2022-12-18T10:57:31.781Z,97781.03
2022-12-18T11:00:22.829Z,97779.38
2022-12-18T11:02:51.540Z,97766.06
2022-12-18T11:05:31.850Z,97758.09
2022-12-18T11:08:02.154Z,97775.84
2022-12-18T11:10:34.413Z,97769.59
2022-12-18T11:13:14.831Z,97769.13
2022-12-18T11:15:44.883Z,97774.63
2022-12-18T11:18:21.851Z,97780.09
2022-12-18T11:20:58.766Z,97781.25
2022-12-18T11:23:29.082Z,97792.19
2022-12-18T11:25:59.954Z,97796.84
2022-12-18T11:28:36.781Z,97806.56
2022-12-18T11:31:32.368Z,97798.13
2022-12-18T11:36:56.604Z,97786.88
2022-12-18T11:39:36.489Z,97784.91
2022-12-18T11:42:13.142Z,97775.88
2022-12-18T11:44:49.046Z,97779.59
2022-12-18T11:47:31.512Z,97781.03
2022-12-18T11:50:05.002Z,97770.97
2022-12-18T11:52:38.901Z,97772.25
2022-12-18T11:55:13.882Z,97772.72
2022-12-18T11:57:52.788Z,97767.47
2022-12-18T12:00:22.235Z,97761.97
2022-12-18T12:03:24.683Z,97775.13
2022-12-18T12:06:05.549Z,97756.59
2022-12-18T12:08:47.524Z,97770.31
2022-12-18T12:11:24.693Z,97764.75
2022-12-18T12:14:05.578Z,97766.97
2022-12-18T12:16:44.229Z,97755.66
2022-12-18T12:19:26.572Z,97748.81
2022-12-18T12:22:03.406Z,97724.47
2022-12-18T12:24:47.516Z,97749.47
2022-12-18T12:27:25.476Z,97743.81
2022-12-18T12:30:06.594Z,97738.09
2022-12-18T12:33:02.754Z,97733.84
2022-12-18T12:35:45.270Z,97727.41
2022-12-18T12:38:19.242Z,97733.88
2022-12-18T12:40:58.797Z,97742.72
2022-12-18T12:43:43.357Z,97741.88
2022-12-18T12:46:21.004Z,97738.44
2022-12-18T12:48:55.902Z,97738.06
2022-12-18T12:51:28.701Z,97731.19
2022-12-18T12:53:59.993Z,97727.25
2022-12-18T12:56:39.128Z,97738.50
2022-12-18T12:59:15.751Z,97745.47
2022-12-18T13:01:56.474Z,97727.44
2022-12-18T13:04:32.902Z,97748.19
2022-12-18T13:07:10.922Z,97742.47
2022-12-18T13:10:19.133Z,97749.59
2022-12-18T13:12:58.301Z,97747.63
2022-12-18T13:15:39.857Z,97733.44
2022-12-18T13:18:16.506Z,97753.84
2022-12-18T13:20:53.663Z,97759.34
2022-12-18T13:23:35.631Z,97738.34
2022-12-18T13:26:36.817Z,97738.94
2022-12-18T13:29:07.453Z,97747.22
2022-12-18T13:32:21.306Z,97746.56
2022-12-18T13:35:11.585Z,97737.88
2022-12-18T13:37:46.140Z,97745.81
2022-12-18T13:40:57.437Z,97743.31
2022-12-18T13:43:38.127Z,97736.41
2022-12-18T13:46:20.357Z,97735.19
2022-12-18T13:49:01.979Z,97741.34
2022-12-18T13:51:34.238Z,97737.50
2022-12-18T13:54:04.707Z,97730.59
2022-12-18T13:56:35.608Z,97737.25
2022-12-18T13:59:24.602Z,97738.09
2022-12-18T14:01:56.328Z,97735.75
2022-12-18T14:04:28.359Z,97743.56
2022-12-18T14:07:01.276Z,97741.56
2022-12-18T14:09:33.396Z,97738.00
2022-12-18T14:12:20.903Z,97724.78
2022-12-18T14:14:55.276Z,97741.88
2022-12-18T14:17:26.057Z,97715.22
2022-12-18T14:19:55.677Z,97726.69
2022-12-18T14:22:28.779Z,97725.97
2022-12-18T14:25:17.733Z,97725.53
2022-12-18T14:27:48.555Z,97734.91
2022-12-18T14:30:33.858Z,97738.47
2022-12-18T14:33:05.431Z,97732.44
2022-12-18T14:35:35.563Z,97741.97
2022-12-18T14:38:23.835Z,97714.81
2022-12-18T14:41:00.472Z,97735.63
2022-12-18T14:43:30.013Z,97732.56
2022-12-18T14:46:01.103Z,97733.69
2022-12-18T14:48:41.423Z,97724.03
2022-12-18T14:51:19.291Z,97715.34
2022-12-18T14:53:54.530Z,97713.53
2022-12-18T14:56:26.822Z,97720.53
2022-12-18T14:58:57.885Z,97708.34
2022-12-18T15:01:31.781Z,97692.16
2022-12-18T15:04:02.257Z,97701.81
2022-12-18T15:06:34.173Z,97709.94
2022-12-18T15:09:07.697Z,97713.34
2022-12-18T15:11:45.797Z,97706.09
2022-12-18T15:14:36.181Z,97682.09
2022-12-18T15:17:09.208Z,97711.91
2022-12-18T15:19:42.705Z,97710.72
2022-12-18T15:22:22.331Z,97721.09
2022-12-18T15:24:52.741Z,97728.09
2022-12-18T15:27:27.135Z,97731.72
2022-12-18T15:30:21.213Z,97700.53
2022-12-18T15:32:51.782Z,97732.69
2022-12-18T15:35:22.569Z,97738.78
2022-12-18T15:37:52.426Z,97707.25
2022-12-18T15:40:23.381Z,97734.31
2022-12-18T15:43:12.728Z,97748.38
2022-12-18T15:45:41.244Z,97747.28
2022-12-18T15:48:22.566Z,97745.03
2022-12-18T15:50:52.520Z,97747.22
2022-12-18T15:53:21.331Z,97748.06
2022-12-18T15:56:07.326Z,97749.22
2022-12-18T15:58:36.480Z,97744.53
2022-12-18T16:01:05.030Z,97753.91
2022-12-18T16:03:35.640Z,97756.22
2022-12-18T16:06:04.516Z,97749.72
2022-12-18T16:08:33.167Z,97739.75
2022-12-18T16:11:02.322Z,97721.25
2022-12-18T16:13:30.749Z,97733.09
2022-12-18T16:15:59.821Z,97741.28
2022-12-18T16:18:28.259Z,97736.38
2022-12-18T16:20:58.707Z,97745.69
2022-12-18T16:23:28.422Z,97739.81
2022-12-18T16:25:56.820Z,97698.38
2022-12-18T16:28:25.913Z,97731.84
2022-12-18T16:30:54.300Z,97723.78
2022-12-18T16:33:23.618Z,97723.34
2022-12-18T16:35:55.515Z,97714.78
2022-12-18T16:38:25.277Z,97714.56
2022-12-18T16:41:11.402Z,97709.03
2022-12-18T16:43:40.282Z,97716.38
2022-12-18T16:46:09.283Z,97705.91
2022-12-18T16:48:39.256Z,97701.69
2022-12-18T16:51:07.649Z,97678.97
2022-12-18T16:53:39.653Z,97692.91
2022-12-18T16:56:08.703Z,97706.59
2022-12-18T16:58:38.001Z,97700.97
2022-12-18T17:01:10.275Z,97707.34
2022-12-18T17:03:39.269Z,97715.41
2022-12-18T17:06:08.762Z,97715.41
2022-12-18T17:08:38.958Z,97710.34
2022-12-18T17:11:08.857Z,97715.41
2022-12-18T17:13:37.827Z,97715.41
2022-12-18T17:16:07.770Z,97720.25
2022-12-18T17:18:36.952Z,97726.00
2022-12-18T17:21:09.809Z,97728.56
2022-12-18T17:23:39.981Z,97724.22
2022-12-18T17:26:11.186Z,97727.34
2022-12-18T17:28:41.787Z,97716.78
2022-12-18T17:31:15.324Z,97697.53
2022-12-18T17:33:44.814Z,97712.94
2022-12-18T17:36:14.098Z,97712.09
2022-12-18T17:38:45.197Z,97707.75
2022-12-18T17:41:13.871Z,97682.84
2022-12-18T17:43:45.918Z,97712.44
2022-12-18T17:46:16.431Z,97711.34
2022-12-18T17:48:45.209Z,97686.34
2022-12-18T17:51:15.044Z,97698.63
2022-12-18T17:53:45.227Z,97714.50
2022-12-18T17:56:16.025Z,97713.19
2022-12-18T17:58:45.818Z,97696.56
2022-12-18T18:01:17.506Z,97716.06
2022-12-18T18:03:47.948Z,97714.50
2022-12-18T18:06:21.174Z,97718.13
2022-12-18T18:08:51.698Z,97695.59
2022-12-18T18:11:40.277Z,97712.44
2022-12-18T18:14:19.466Z,97706.28
2022-12-18T18:16:50.068Z,97714.72
2022-12-18T18:19:20.723Z,97717.88
2022-12-18T18:21:52.925Z,97703.66
2022-12-18T18:24:25.761Z,97690.06
2022-12-18T18:26:59.511Z,97706.19
2022-12-18T18:29:31.924Z,97705.69
2022-12-18T18:32:00.621Z,97697.63
2022-12-18T18:34:32.859Z,97695.72
2022-12-18T18:37:03.052Z,97655.72
2022-12-18T18:39:33.242Z,97653.66
2022-12-18T18:42:01.853Z,97690.28
2022-12-18T18:44:31.607Z,97700.38
2022-12-18T18:47:00.226Z,97698.47
2022-12-18T18:49:31.427Z,97685.09
2022-12-18T18:52:00.546Z,97707.13
2022-12-18T18:54:29.399Z,97701.91
2022-12-18T18:57:20.119Z,97704.94
2022-12-18T18:59:49.809Z,97702.28
2022-12-18T19:02:19.203Z,97703.25
2022-12-18T19:04:47.809Z,97675.19
2022-12-18T19:07:29.858Z,97704.69
2022-12-18T19:10:04.482Z,97682.66
2022-12-18T19:12:53.639Z,97692.41
2022-12-18T19:15:23.424Z,97696.88
2022-12-18T19:17:52.735Z,97681.56
2022-12-18T19:20:21.831Z,97689.78
2022-12-18T19:22:55.354Z,97697.63
2022-12-18T19:25:38.387Z,97694.72
2022-12-18T19:28:15.875Z,97689.22
2022-12-18T19:30:58.713Z,97688.84
2022-12-18T19:33:45.063Z,97694.34
2022-12-18T19:36:16.802Z,97683.00
2022-12-18T19:38:46.134Z,97690.84
2022-12-18T19:41:16.393Z,97687.97
2022-12-18T19:43:47.424Z,97671.59
2022-12-18T19:46:18.251Z,97671.31
2022-12-18T19:48:48.270Z,97661.72
2022-12-18T19:51:18.779Z,97675.53
2022-12-18T19:53:49.863Z,97670.03
2022-12-18T19:56:23.179Z,97668.81
2022-12-18T19:58:54.545Z,97667.00
2022-12-18T20:01:24.736Z,97661.59
2022-12-18T20:03:55.262Z,97665.22
2022-12-18T20:06:27.793Z,97677.09
2022-12-18T20:09:00.487Z,97665.88
2022-12-18T20:11:30.198Z,97671.19
2022-12-18T20:14:00.008Z,97663.00
2022-12-18T20:16:28.601Z,97662.16
2022-12-18T20:18:58.553Z,97672.50
2022-12-18T20:21:27.045Z,97675.31
2022-12-18T20:23:56.344Z,97673.84
2022-12-18T20:26:25.223Z,97682.50
2022-12-18T20:28:55.588Z,97680.13
2022-12-18T20:31:25.816Z,97674.09
2022-12-18T20:33:55.740Z,97663.88
2022-12-18T20:36:29.536Z,97677.47
2022-12-18T20:39:01.651Z,97676.00
2022-12-18T20:41:38.511Z,97677.34
2022-12-18T20:44:23.246Z,97676.63
2022-12-18T20:46:57.960Z,97670.88
2022-12-18T20:49:27.938Z,97674.31
2022-12-18T20:51:58.843Z,97676.44
2022-12-18T20:54:28.648Z,97668.75
2022-12-18T20:56:58.360Z,97672.97
2022-12-18T20:59:27.153Z,97661.78
2022-12-18T21:01:57.129Z,97654.81
2022-12-18T21:04:25.997Z,97628.22
2022-12-18T21:07:00.438Z,97661.78
2022-12-18T21:09:37.566Z,97662.50
2022-12-18T21:12:44.004Z,97658.06
2022-12-18T21:15:25.383Z,97660.81
2022-12-18T21:17:58.665Z,97672.97
2022-12-18T21:20:28.061Z,97632.53
2022-12-18T21:22:57.703Z,97673.41
2022-12-18T21:25:39.703Z,97641.16
2022-12-18T21:28:08.082Z,97667.59
2022-12-18T21:30:37.274Z,97663.50
2022-12-18T21:33:07.361Z,97658.09
2022-12-18T21:35:36.185Z,97648.50
2022-12-18T21:38:05.696Z,97660.75
2022-12-18T21:40:34.263Z,97659.44
2022-12-18T21:43:20.772Z,97656.22
2022-12-18T21:45:49.268Z,97647.69
2022-12-18T21:48:19.527Z,97646.47
2022-12-18T21:50:48.441Z,97638.31
2022-12-18T21:53:17.277Z,97650.34
2022-12-18T21:55:45.659Z,97632.41
2022-12-18T21:58:14.910Z,97626.78
2022-12-18T22:00:48.574Z,97623.28
2022-12-18T22:03:19.463Z,97627.00
2022-12-18T22:05:49.655Z,97635.06
2022-12-18T22:08:29.907Z,97634.47
2022-12-18T22:10:58.603Z,97618.22
2022-12-18T22:13:27.122Z,97635.41
2022-12-18T22:15:56.434Z,97631.09
2022-12-18T22:18:24.842Z,97633.72
2022-12-18T22:21:03.466Z,97623.53
2022-12-18T22:23:32.258Z,97630.16
2022-12-18T22:26:01.172Z,97621.25
2022-12-18T22:28:55.893Z,97628.72
2022-12-18T22:31:24.544Z,97622.44
2022-12-18T22:33:52.941Z,97628.19
2022-12-18T22:36:23.578Z,97634.34
2022-12-18T22:38:52.002Z,97631.59
2022-12-18T22:41:22.923Z,97627.22
2022-12-18T22:43:51.321Z,97623.41
2022-12-18T22:46:21.865Z,97597.06
2022-12-18T22:48:51.230Z,97621.25
2022-12-18T22:51:20.719Z,97619.66
2022-12-18T22:53:51.371Z,97603.19
2022-12-18T22:56:21.374Z,97580.34
2022-12-18T22:58:50.858Z,97565.94
2022-12-18T23:01:22.558Z,97570.97
2022-12-18T23:03:51.684Z,97574.22
2022-12-18T23:06:21.334Z,97570.72
2022-12-18T23:08:55.952Z,97570.34
2022-12-18T23:11:26.095Z,97581.66
2022-12-18T23:13:57.547Z,97580.59
2022-12-18T23:16:27.867Z,97573.50
2022-12-18T23:18:56.898Z,97579.84
2022-12-18T23:21:26.401Z,97578.28
2022-12-18T23:23:57.486Z,97571.56
2022-12-18T23:26:28.585Z,97564.94
2022-12-18T23:28:57.445Z,97573.13
2022-12-18T23:31:29.086Z,97558.09
2022-12-18T23:33:59.210Z,97549.69
2022-12-18T23:36:29.127Z,97540.53
2022-12-18T23:39:02.461Z,97552.69
2022-12-18T23:41:32.650Z,97555.34
2022-12-18T23:44:01.797Z,97545.59
2022-12-18T23:46:32.183Z,97539.47
2022-12-18T23:49:02.789Z,97549.06
2022-12-18T23:51:34.474Z,97545.47
2022-12-18T23:54:06.564Z,97552.94
2022-12-18T23:56:35.781Z,97531.88
2022-12-18T23:59:04.931Z,97544.03
